Time;durP1;ratioP1;P1;durP2;ratioP2;P2;SDS_P1;SDS_P2;PMS_P1;PMS_P2;Temp;Humidity;BMP_temperature;BMP_pressure;BME280_temperature;BME280_humidity;BME280_pressure;Samples;Min_cycle;Max_cycle;Signal;HPM_P1;HPM_P2
2021/06/10 00:01:00;;;;;;;10.07;6.07;;;13.90;99.90;;;;;;5032182;28;21180;-91
2021/06/10 00:03:26;;;;;;;7.93;5.63;;;13.70;99.90;;;;;;5001705;28;20663;-89
2021/06/10 00:05:52;;;;;;;10.60;6.03;;;13.50;99.90;;;;;;5033085;28;20209;-88
2021/06/10 00:08:18;;;;;;;9.10;5.53;;;13.50;99.90;;;;;;5033965;28;20620;-88
2021/06/10 00:10:44;;;;;;;10.33;6.87;;;13.40;99.90;;;;;;5016330;28;20223;-86
2021/06/10 00:13:13;;;;;;;9.83;7.37;;;13.40;99.90;;;;;;5034155;28;20221;-87
2021/06/10 00:15:38;;;;;;;14.50;9.87;;;13.50;99.90;;;;;;5015185;28;20195;-88
2021/06/10 00:18:05;;;;;;;18.20;10.03;;;13.60;99.90;;;;;;5011490;28;20722;-86
2021/06/10 00:20:33;;;;;;;8.67;5.40;;;13.60;99.90;;;;;;5029849;28;20227;-87
2021/06/10 00:22:59;;;;;;;6.17;4.80;;;13.60;99.90;;;;;;5035923;28;20279;-87
2021/06/10 00:25:27;;;;;;;3.27;2.90;;;13.50;99.90;;;;;;5032339;28;20222;-88
2021/06/10 00:27:53;;;;;;;5.93;4.03;;;13.40;99.90;;;;;;5033156;28;20417;-87
2021/06/10 00:30:19;;;;;;;10.87;7.27;;;13.40;99.90;;;;;;5019564;28;20194;-86
2021/06/10 00:32:47;;;;;;;9.80;5.73;;;13.40;99.90;;;;;;5030838;28;20221;-89
2021/06/10 00:35:15;;;;;;;14.60;4.13;;;13.40;99.90;;;;;;5033194;28;20237;-90
2021/06/10 00:37:42;;;;;;;6.50;4.33;;;13.20;99.90;;;;;;5016882;28;20237;-88
2021/06/10 00:40:09;;;;;;;5.77;4.33;;;13.00;99.90;;;;;;5013612;28;20226;-89
2021/06/10 00:42:36;;;;;;;39.97;5.27;;;12.80;99.90;;;;;;5033435;28;20189;-88
2021/06/10 00:45:04;;;;;;;27.10;5.03;;;12.70;99.90;;;;;;5031461;28;20320;-88
2021/06/10 00:47:30;;;;;;;5.40;4.20;;;12.60;99.90;;;;;;5031328;28;20690;-88
2021/06/10 00:49:56;;;;;;;5.70;4.17;;;12.60;99.90;;;;;;5014220;28;20222;-88
2021/06/10 00:52:22;;;;;;;9.87;4.97;;;12.60;99.90;;;;;;5014486;28;20681;-87
2021/06/10 00:54:47;;;;;;;11.63;5.47;;;12.60;99.90;;;;;;5032251;28;20245;-86
2021/06/10 00:57:13;;;;;;;7.80;5.40;;;12.60;99.90;;;;;;5033351;28;20708;-88
2021/06/10 00:59:39;;;;;;;8.63;6.60;;;12.70;99.90;;;;;;5015027;28;20217;-88
2021/06/10 01:02:05;;;;;;;6.13;5.10;;;12.80;99.90;;;;;;5013006;28;20708;-89
2021/06/10 01:04:30;;;;;;;8.40;5.37;;;12.80;99.90;;;;;;4998606;28;20873;-87
2021/06/10 01:07:24;;;;;;;4.63;3.83;;;12.70;99.90;;;;;;5012115;28;21009;-87
2021/06/10 01:10:01;;;;;;;5.50;3.53;;;12.60;99.90;;;;;;5033126;28;20534;-86
2021/06/10 01:12:26;;;;;;;10.90;4.40;;;12.40;99.90;;;;;;5031212;28;20197;-87
2021/06/10 01:15:06;;;;;;;5.53;4.10;;;12.30;99.90;;;;;;5029791;28;21016;-88
2021/06/10 01:17:40;;;;;;;5.50;3.77;;;12.10;99.90;;;;;;5027194;28;20238;-89
2021/06/10 01:20:11;;;;;;;6.27;4.10;;;12.00;99.90;;;;;;5028504;28;20255;-87
2021/06/10 01:22:46;;;;;;;9.87;5.20;;;12.00;99.90;;;;;;5031058;28;20648;-87
2021/06/10 01:25:46;;;;;;;5.77;3.90;;;12.00;99.90;;;;;;5027116;28;20229;-87
2021/06/10 01:28:18;;;;;;;4.73;3.17;;;12.10;99.90;;;;;;5028569;28;20221;-87
2021/06/10 01:30:50;;;;;;;3.47;3.17;;;12.00;99.90;;;;;;5029653;28;20244;-87
2021/06/10 01:33:26;;;;;;;37.67;5.43;;;12.10;99.90;;;;;;5025369;28;20210;-88
2021/06/10 01:36:02;;;;;;;73.97;6.03;;;12.10;99.90;;;;;;5027294;28;20257;-87
2021/06/10 01:38:30;;;;;;;12.43;3.03;;;11.90;99.90;;;;;;5046290;28;20244;-88
2021/06/10 01:40:57;;;;;;;2.73;2.27;;;11.60;99.90;;;;;;5030163;28;20224;-88
2021/06/10 01:43:30;;;;;;;3.40;3.03;;;11.50;99.90;;;;;;5030839;28;20252;-88
2021/06/10 01:45:58;;;;;;;3.70;2.60;;;11.50;99.90;;;;;;5030621;28;20313;-88
2021/06/10 01:48:25;;;;;;;5.50;3.40;;;11.50;99.90;;;;;;5034087;28;20191;-86
2021/06/10 01:50:55;;;;;;;8.73;5.10;;;11.60;99.90;;;;;;5031177;28;20219;-87
2021/06/10 01:53:23;;;;;;;4.53;3.43;;;11.50;99.90;;;;;;5026787;28;20217;-89
2021/06/10 01:55:50;;;;;;;8.37;5.27;;;11.40;99.90;;;;;;5027200;28;20230;-87
2021/06/10 01:58:18;;;;;;;11.67;6.90;;;11.60;99.90;;;;;;5011627;28;20305;-86
2021/06/10 02:00:45;;;;;;;16.50;10.10;;;11.80;99.90;;;;;;5008510;28;20197;-87
2021/06/10 02:03:12;;;;;;;19.73;10.73;;;12.20;99.90;;;;;;5027696;28;20276;-88
2021/06/10 02:05:40;;;;;;;20.93;12.07;;;12.40;99.90;;;;;;5047990;28;20248;-88
2021/06/10 02:08:11;;;;;;;22.63;13.60;;;12.70;99.90;;;;;;5033631;28;20214;-88
2021/06/10 02:10:38;;;;;;;22.27;11.67;;;12.80;99.90;;;;;;5017220;28;20677;-87
2021/06/10 02:13:05;;;;;;;19.93;11.23;;;12.80;99.90;;;;;;5033264;28;20286;-86
2021/06/10 02:15:31;;;;;;;25.73;11.73;;;12.80;99.90;;;;;;5019093;28;20492;-86
2021/06/10 02:17:57;;;;;;;23.07;12.00;;;12.80;99.90;;;;;;5016853;28;20238;-86
2021/06/10 02:20:23;;;;;;;24.03;11.53;;;12.80;99.90;;;;;;5018559;28;20253;-86
2021/06/10 02:22:50;;;;;;;15.27;10.97;;;12.80;99.90;;;;;;5035616;28;20231;-88
2021/06/10 02:25:16;;;;;;;21.67;12.30;;;12.80;99.90;;;;;;5037082;28;20226;-88
2021/06/10 02:27:42;;;;;;;17.67;9.70;;;12.80;99.90;;;;;;5019675;28;21138;-89
2021/06/10 02:30:10;;;;;;;22.33;12.10;;;12.80;99.90;;;;;;5016771;28;20214;-88
2021/06/10 02:32:37;;;;;;;16.63;11.57;;;12.80;99.90;;;;;;5032908;28;20312;-85
2021/06/10 02:35:08;;;;;;;27.13;12.10;;;12.80;99.90;;;;;;5037020;28;20233;-87
2021/06/10 02:37:36;;;;;;;17.20;11.17;;;12.70;99.90;;;;;;5035591;28;20313;-85
2021/06/10 02:40:09;;;;;;;19.80;11.13;;;12.70;99.90;;;;;;5035549;28;20228;-84
2021/06/10 02:42:36;;;;;;;27.07;12.03;;;12.80;99.90;;;;;;5034694;28;20179;-86
2021/06/10 02:45:04;;;;;;;16.83;8.87;;;12.80;99.90;;;;;;5033024;28;20214;-86
2021/06/10 02:47:31;;;;;;;21.63;10.73;;;12.80;99.90;;;;;;5031490;28;20309;-86
2021/06/10 02:49:58;;;;;;;15.97;10.03;;;12.70;99.90;;;;;;5030815;28;20248;-89
2021/06/10 02:52:26;;;;;;;15.63;11.00;;;12.70;99.90;;;;;;5017715;28;20230;-88
2021/06/10 02:54:52;;;;;;;16.17;10.57;;;12.70;99.90;;;;;;5036593;28;20193;-86
2021/06/10 02:57:20;;;;;;;14.93;8.77;;;12.70;99.90;;;;;;5017045;28;20278;-87
2021/06/10 02:59:47;;;;;;;16.37;8.83;;;12.70;99.90;;;;;;5015388;28;20275;-86
2021/06/10 03:02:14;;;;;;;6.47;4.83;;;12.70;99.90;;;;;;5017499;28;20221;-86
2021/06/10 03:04:45;;;;;;;4.17;3.70;;;12.40;99.90;;;;;;5036196;28;20245;-87
2021/06/10 03:07:15;;;;;;;61.17;6.13;;;12.00;99.90;;;;;;5034587;28;20225;-86
2021/06/10 03:09:43;;;;;;;31.67;4.10;;;11.80;99.90;;;;;;5034992;28;20201;-86
2021/06/10 03:12:11;;;;;;;7.07;5.00;;;11.60;99.90;;;;;;5034784;28;20564;-87
2021/06/10 03:14:40;;;;;;;7.27;4.67;;;11.60;99.90;;;;;;5032424;28;20226;-88
2021/06/10 03:17:07;;;;;;;10.97;6.90;;;11.80;99.90;;;;;;5009837;28;20242;-88
2021/06/10 03:19:33;;;;;;;15.93;9.00;;;12.00;99.90;;;;;;5014584;28;20516;-86
2021/06/10 03:21:59;;;;;;;11.27;7.13;;;12.20;99.90;;;;;;5016810;28;20643;-88
2021/06/10 03:24:25;;;;;;;11.33;7.27;;;12.40;99.90;;;;;;5032888;28;20226;-88
2021/06/10 03:26:54;;;;;;;16.33;9.47;;;12.40;99.90;;;;;;5031807;28;20244;-87
2021/06/10 03:29:20;;;;;;;18.90;10.37;;;12.50;99.90;;;;;;5031279;28;20218;-87
2021/06/10 03:31:47;;;;;;;17.10;10.80;;;12.60;99.90;;;;;;5016203;28;20430;-86
2021/06/10 03:34:14;;;;;;;16.27;8.87;;;12.60;99.90;;;;;;5033786;28;20222;-85
2021/06/10 03:36:41;;;;;;;13.17;9.30;;;12.70;99.90;;;;;;5035349;28;21136;-88
2021/06/10 03:39:07;;;;;;;14.57;9.07;;;12.70;99.90;;;;;;5031344;28;20305;-85
2021/06/10 03:41:34;;;;;;;15.33;8.67;;;12.70;99.90;;;;;;5032914;28;20265;-86
2021/06/10 03:44:01;;;;;;;17.30;9.37;;;12.80;99.90;;;;;;5032870;28;20249;-88
2021/06/10 03:46:28;;;;;;;13.67;8.83;;;12.80;99.90;;;;;;5034928;28;20222;-87
2021/06/10 03:48:54;;;;;;;16.53;8.73;;;12.80;99.90;;;;;;5031766;28;20193;-86
2021/06/10 03:51:21;;;;;;;16.40;9.43;;;12.90;99.90;;;;;;5033464;28;20218;-87
2021/06/10 03:53:49;;;;;;;14.13;8.80;;;12.90;99.90;;;;;;5016543;28;20302;-86
2021/06/10 03:56:15;;;;;;;19.30;11.10;;;13.00;99.90;;;;;;5033235;28;20214;-86
2021/06/10 03:58:41;;;;;;;25.53;12.23;;;13.10;99.90;;;;;;5018237;28;20260;-86
2021/06/10 04:01:07;;;;;;;18.87;11.63;;;13.10;99.90;;;;;;5014877;28;20309;-87
2021/06/10 04:03:33;;;;;;;19.07;10.63;;;13.20;99.90;;;;;;5015832;28;20290;-85
2021/06/10 04:06:00;;;;;;;20.67;11.40;;;13.20;99.90;;;;;;5000363;28;20234;-85
2021/06/10 04:08:25;;;;;;;22.17;10.97;;;13.30;99.90;;;;;;5032621;28;20647;-86
2021/06/10 04:10:51;;;;;;;20.07;11.23;;;13.40;99.90;;;;;;5031070;28;20226;-84
2021/06/10 04:13:17;;;;;;;17.90;9.83;;;13.40;99.90;;;;;;5014183;28;20213;-88
2021/06/10 04:15:43;;;;;;;17.50;9.67;;;13.40;99.90;;;;;;5015957;28;20231;-86
2021/06/10 04:18:08;;;;;;;15.63;10.00;;;13.40;99.90;;;;;;4998567;28;20672;-86
2021/06/10 04:20:35;;;;;;;15.53;9.03;;;13.40;99.90;;;;;;5015588;28;20225;-92
2021/06/10 04:23:00;;;;;;;19.63;11.73;;;13.50;99.90;;;;;;5034154;28;20665;-89
2021/06/10 04:25:26;;;;;;;18.33;10.43;;;13.60;99.90;;;;;;5016508;28;20237;-91
2021/06/10 04:27:52;;;;;;;14.67;9.70;;;13.70;99.90;;;;;;5032902;28;20206;-92
2021/06/10 04:30:18;;;;;;;19.70;11.27;;;13.80;99.90;;;;;;5031469;28;20212;-93
2021/06/10 04:32:46;;;;;;;18.50;10.40;;;13.90;99.90;;;;;;5032697;28;20280;-91
2021/06/10 04:35:13;;;;;;;23.13;11.73;;;14.00;99.90;;;;;;5014467;28;20226;-92
2021/06/10 04:37:38;;;;;;;22.87;12.13;;;14.00;99.90;;;;;;5012287;28;20225;-92
2021/06/10 04:40:05;;;;;;;20.17;12.17;;;14.10;99.90;;;;;;5032340;28;20190;-91
2021/06/10 04:42:31;;;;;;;23.60;12.23;;;14.20;99.90;;;;;;5031814;28;20193;-92
2021/06/10 04:44:57;;;;;;;19.03;12.10;;;14.30;99.90;;;;;;5031434;28;20229;-89
2021/06/10 04:47:23;;;;;;;19.40;11.10;;;14.40;99.90;;;;;;5013624;28;20297;-89
2021/06/10 04:49:49;;;;;;;18.27;10.60;;;14.50;99.90;;;;;;5018521;28;20291;-92
2021/06/10 04:52:15;;;;;;;21.77;11.87;;;14.60;99.90;;;;;;5031260;28;20229;-90
2021/06/10 04:54:40;;;;;;;18.43;11.10;;;14.70;99.90;;;;;;5031164;28;20578;-89
2021/06/10 04:57:07;;;;;;;16.00;9.70;;;14.70;99.90;;;;;;5014912;28;20270;-91
2021/06/10 04:59:32;;;;;;;19.43;10.97;;;14.90;99.90;;;;;;5012455;28;20237;-91
2021/06/10 05:01:58;;;;;;;16.57;9.57;;;15.00;99.90;;;;;;5014145;28;20681;-92
2021/06/10 05:04:24;;;;;;;16.90;10.60;;;15.00;99.90;;;;;;5017262;28;20257;-91
2021/06/10 05:06:53;;;;;;;21.20;11.03;;;15.10;99.90;;;;;;5015735;28;20578;-91
2021/06/10 05:09:19;;;;;;;16.00;9.40;;;15.20;99.90;;;;;;5030113;28;20194;-91
2021/06/10 05:11:45;;;;;;;14.47;9.07;;;15.40;99.90;;;;;;5014642;28;20775;-93
2021/06/10 05:14:10;;;;;;;15.70;9.83;;;15.70;99.90;;;;;;5029491;28;20214;-91
2021/06/10 05:16:37;;;;;;;15.73;10.57;;;17.50;99.90;;;;;;5027552;28;20278;-91
2021/06/10 05:19:03;;;;;;;16.80;9.67;;;20.50;99.90;;;;;;5033779;28;20215;-90
2021/06/10 05:21:29;;;;;;;17.57;10.07;;;23.30;99.90;;;;;;5034967;28;20282;-91
2021/06/10 05:23:55;;;;;;;15.07;7.63;;;23.70;99.90;;;;;;5013092;28;20217;-92
2021/06/10 05:26:21;;;;;;;12.30;7.57;;;23.10;99.90;;;;;;5031018;28;20242;-92
2021/06/10 05:28:47;;;;;;;9.87;7.70;;;25.10;99.90;;;;;;5030347;28;20235;-92
2021/06/10 05:31:12;;;;;;;14.37;8.33;;;28.00;99.90;;;;;;5029870;28;20344;-90
2021/06/10 05:33:38;;;;;;;15.70;8.80;;;30.10;99.90;;;;;;4997972;28;20224;-91
2021/06/10 05:36:05;;;;;;;13.43;7.23;;;31.30;99.90;;;;;;5014172;28;20226;-91
2021/06/10 05:38:31;;;;;;;13.70;8.47;;;32.80;99.90;;;;;;5031040;28;20218;-91
2021/06/10 05:40:56;;;;;;;14.50;9.30;;;32.80;99.80;;;;;;5011500;28;20221;-90
2021/06/10 05:43:23;;;;;;;12.10;7.57;;;33.50;98.20;;;;;;5002197;28;20677;-91
2021/06/10 05:45:52;;;;;;;16.38;9.18;;;33.70;97.10;;;;;;5036301;28;20747;-88
2021/06/10 05:48:19;;;;;;;12.95;8.38;;;32.80;98.50;;;;;;5018540;28;20617;-90
2021/06/10 05:50:45;;;;;;;14.55;8.77;;;33.20;97.90;;;;;;5036223;28;20224;-88
2021/06/10 05:53:11;;;;;;;16.45;9.90;;;34.00;96.90;;;;;;5035256;28;20782;-88
2021/06/10 05:55:38;;;;;;;18.98;10.27;;;35.20;96.20;;;;;;5035083;28;20232;-88
2021/06/10 05:58:04;;;;;;;15.32;10.57;;;34.60;96.10;;;;;;5001260;28;20524;-90
2021/06/10 06:00:30;;;;;;;15.07;9.23;;;34.10;96.50;;;;;;5019199;28;23678;-88
2021/06/10 06:02:56;;;;;;;18.50;10.65;;;33.80;96.80;;;;;;5033271;28;20307;-91
2021/06/10 06:05:22;;;;;;;15.43;10.60;;;33.80;97.40;;;;;;5032786;28;20230;-88
2021/06/10 06:07:51;;;;;;;14.32;10.80;;;34.90;95.90;;;;;;5016898;28;20245;-89
2021/06/10 06:10:19;;;;;;;16.33;11.00;;;35.00;95.10;;;;;;5018352;28;20336;-87
2021/06/10 06:12:47;;;;;;;20.38;11.00;;;33.20;96.60;;;;;;5016992;28;20186;-87
2021/06/10 06:15:13;;;;;;;17.77;11.23;;;32.50;97.80;;;;;;5018944;28;20214;-87
2021/06/10 06:17:39;;;;;;;15.60;11.45;;;33.80;96.70;;;;;;5033540;28;20256;-89
2021/06/10 06:20:05;;;;;;;16.92;11.40;;;34.60;95.40;;;;;;5009385;28;20270;-88
2021/06/10 06:22:31;;;;;;;18.40;10.95;;;33.20;97.70;;;;;;5018755;28;20921;-89
2021/06/10 06:24:56;;;;;;;17.98;11.70;;;33.70;96.90;;;;;;5020682;28;20210;-89
2021/06/10 06:27:22;;;;;;;15.77;11.52;;;33.70;96.70;;;;;;5019926;28;20190;-91
2021/06/10 06:29:48;;;;;;;18.63;12.02;;;33.30;96.90;;;;;;5036219;28;20247;-90
2021/06/10 06:32:14;;;;;;;15.52;10.88;;;32.80;97.30;;;;;;5018512;28;20786;-94
2021/06/10 06:34:39;;;;;;;19.20;11.88;;;33.40;96.80;;;;;;5017889;28;20222;-90
2021/06/10 06:37:05;;;;;;;17.52;11.05;;;34.00;96.20;;;;;;5037604;28;20197;-89
2021/06/10 06:39:32;;;;;;;17.33;11.52;;;34.10;95.50;;;;;;5004132;28;20193;-89
2021/06/10 06:41:59;;;;;;;17.27;11.65;;;34.50;96.50;;;;;;5019457;28;20215;-89
2021/06/10 06:44:25;;;;;;;18.45;10.30;;;34.90;95.40;;;;;;5037049;28;20707;-92
2021/06/10 06:46:50;;;;;;;14.38;10.73;;;35.10;95.90;;;;;;5037621;28;20318;-94
2021/06/10 06:49:16;;;;;;;17.10;11.35;;;35.30;95.90;;;;;;5036279;28;20228;-92
2021/06/10 06:51:42;;;;;;;16.65;11.45;;;35.60;95.60;;;;;;5052969;28;20225;-88
2021/06/10 06:54:08;;;;;;;15.85;10.65;;;34.20;95.50;;;;;;5033494;28;20634;-88
2021/06/10 06:56:34;;;;;;;15.30;11.45;;;34.20;95.80;;;;;;5031808;28;20230;-90
2021/06/10 06:58:59;;;;;;;16.80;12.10;;;34.20;95.90;;;;;;5014395;28;20226;-90
2021/06/10 07:01:25;;;;;;;19.08;12.30;;;34.30;95.60;;;;;;5031610;28;20227;-92
2021/06/10 07:03:51;;;;;;;17.70;12.52;;;33.80;95.50;;;;;;5032304;28;20226;-89
2021/06/10 07:06:17;;;;;;;15.55;11.85;;;33.50;95.90;;;;;;5034607;28;20187;-90
2021/06/10 07:08:43;;;;;;;17.98;11.98;;;33.00;95.90;;;;;;5033002;28;20217;-89
2021/06/10 07:11:08;;;;;;;17.30;11.82;;;33.70;95.70;;;;;;5032040;28;20215;-89
2021/06/10 07:13:34;;;;;;;15.57;11.00;;;34.50;94.80;;;;;;5033529;28;20523;-91
2021/06/10 07:16:00;;;;;;;16.00;11.05;;;34.30;94.90;;;;;;5015516;28;20185;-89
2021/06/10 07:18:26;;;;;;;25.02;12.93;;;33.70;95.80;;;;;;5015345;28;20225;-87
2021/06/10 07:20:53;;;;;;;16.25;11.50;;;32.80;95.70;;;;;;5032688;28;20223;-90
2021/06/10 07:23:19;;;;;;;17.35;11.20;;;32.00;96.90;;;;;;5015695;28;20214;-89
2021/06/10 07:25:45;;;;;;;14.68;11.23;;;32.30;97.20;;;;;;5031297;28;20560;-88
2021/06/10 07:28:11;;;;;;;17.00;11.98;;;32.10;97.80;;;;;;5018668;28;20249;-89
2021/06/10 07:30:37;;;;;;;18.58;12.18;;;33.20;96.90;;;;;;5033223;28;20790;-91
2021/06/10 07:33:04;;;;;;;19.13;12.57;;;33.80;96.10;;;;;;5015183;28;20823;-89
2021/06/10 07:35:33;;;;;;;20.40;12.05;;;34.50;95.20;;;;;;5012951;28;20237;-88
2021/06/10 07:38:00;;;;;;;17.40;12.57;;;34.60;96.50;;;;;;4997570;28;20238;-89
2021/06/10 07:40:28;;;;;;;16.00;11.65;;;34.40;95.80;;;;;;5034849;28;20221;-89
2021/06/10 07:42:55;;;;;;;17.85;11.57;;;34.70;95.80;;;;;;5033472;28;20186;-87
2021/06/10 07:45:22;;;;;;;18.33;11.90;;;34.60;95.60;;;;;;5032762;28;20219;-91
2021/06/10 07:47:48;;;;;;;17.38;11.63;;;35.00;95.00;;;;;;5016086;28;20218;-89
2021/06/10 07:50:14;;;;;;;15.32;10.60;;;33.90;94.30;;;;;;5022256;28;20210;-90
2021/06/10 07:52:40;;;;;;;19.33;11.25;;;33.50;96.40;;;;;;5033064;28;20219;-88
2021/06/10 07:55:06;;;;;;;19.20;11.45;;;34.00;96.70;;;;;;5031051;28;20186;-89
2021/06/10 07:57:32;;;;;;;18.02;12.25;;;34.40;96.30;;;;;;5032143;28;20195;-88
2021/06/10 07:59:58;;;;;;;14.95;11.02;;;35.20;94.00;;;;;;5030247;28;20248;-89
2021/06/10 08:02:25;;;;;;;17.05;10.57;;;34.90;95.60;;;;;;5013255;28;20259;-87
2021/06/10 08:04:51;;;;;;;13.75;10.57;;;35.70;95.00;;;;;;4996079;28;20291;-88
2021/06/10 08:07:17;;;;;;;15.20;10.73;;;35.90;95.00;;;;;;5032926;28;20218;-86
2021/06/10 08:09:43;;;;;;;15.02;11.02;;;35.90;94.10;;;;;;5034360;28;20301;-88
2021/06/10 08:12:09;;;;;;;15.95;11.02;;;35.40;94.70;;;;;;4999538;28;20210;-88
2021/06/10 08:14:35;;;;;;;14.65;9.93;;;35.70;95.50;;;;;;5034613;28;20218;-87
2021/06/10 08:17:01;;;;;;;15.13;11.18;;;35.40;94.00;;;;;;5012996;28;20730;-86
2021/06/10 08:19:27;;;;;;;15.27;10.50;;;33.80;94.80;;;;;;5032052;28;20838;-88
2021/06/10 08:21:52;;;;;;;16.83;10.85;;;33.90;95.70;;;;;;5030540;28;20620;-89
2021/06/10 08:24:18;;;;;;;15.75;10.68;;;34.60;94.70;;;;;;5016133;28;20214;-88
2021/06/10 08:26:44;;;;;;;14.13;10.88;;;35.30;95.10;;;;;;5015239;28;21258;-89
2021/06/10 08:29:11;;;;;;;14.85;11.57;;;35.20;94.00;;;;;;5032089;28;20776;-89
2021/06/10 08:31:40;;;;;;;16.15;10.75;;;35.30;94.60;;;;;;5031349;28;20222;-88
2021/06/10 08:34:06;;;;;;;12.10;7.95;;;35.70;94.20;;;;;;5016943;28;20186;-91
2021/06/10 08:36:32;;;;;;;8.68;6.93;;;35.10;92.20;;;;;;5013583;28;20647;-88
2021/06/10 08:38:58;;;;;;;10.20;8.43;;;35.10;93.80;;;;;;5029594;28;20218;-88
2021/06/10 08:41:28;;;;;;;11.52;8.98;;;34.80;93.70;;;;;;5029556;28;21350;-87
2021/06/10 08:43:55;;;;;;;10.55;7.82;;;33.30;95.10;;;;;;5014963;28;20293;-89
2021/06/10 08:46:22;;;;;;;9.27;7.25;;;33.60;96.30;;;;;;5030096;28;20214;-88
2021/06/10 08:48:49;;;;;;;8.63;6.85;;;33.60;95.30;;;;;;5030052;28;20192;-88
2021/06/10 08:51:15;;;;;;;11.07;7.72;;;33.50;95.10;;;;;;5029758;28;20182;-89
2021/06/10 08:53:41;;;;;;;7.63;5.95;;;34.00;94.80;;;;;;5015578;28;20288;-87
2021/06/10 08:56:07;;;;;;;9.02;6.00;;;33.60;94.00;;;;;;5015583;28;20224;-87
2021/06/10 08:58:34;;;;;;;9.70;6.57;;;33.80;94.30;;;;;;5032399;28;20301;-90
2021/06/10 09:01:01;;;;;;;7.15;5.57;;;34.20;96.00;;;;;;5013303;28;20502;-89
2021/06/10 09:03:29;;;;;;;7.82;5.80;;;33.90;94.40;;;;;;5015124;28;20209;-89
2021/06/10 09:06:01;;;;;;;8.07;5.70;;;34.70;94.00;;;;;;5029936;28;20230;-85
2021/06/10 09:08:28;;;;;;;7.07;5.35;;;35.40;94.00;;;;;;5030306;28;20693;-88
2021/06/10 09:11:16;;;;;;;6.75;5.70;;;35.50;93.70;;;;;;5029376;28;20677;-87
2021/06/10 09:13:55;;;;;;;9.68;5.80;;;35.20;93.40;;;;;;5029620;28;20214;-86
2021/06/10 09:16:36;;;;;;;7.22;5.75;;;34.50;92.80;;;;;;5030407;28;20226;-87
2021/06/10 09:19:12;;;;;;;9.48;6.45;;;33.70;93.60;;;;;;5029196;28;20304;-87
2021/06/10 09:21:48;;;;;;;6.18;5.30;;;33.80;94.60;;;;;;5031334;28;20190;-86
2021/06/10 09:24:29;;;;;;;8.55;5.47;;;33.40;93.80;;;;;;5028927;28;20233;-86
2021/06/10 09:27:00;;;;;;;6.10;5.40;;;32.90;95.20;;;;;;5031054;28;20210;-88
2021/06/10 09:29:46;;;;;;;7.88;5.03;;;33.00;94.70;;;;;;5029700;28;20214;-88
2021/06/10 09:32:18;;;;;;;9.38;5.82;;;33.20;93.50;;;;;;5030034;28;20210;-86
2021/06/10 09:34:55;;;;;;;10.30;6.68;;;33.00;94.50;;;;;;5048298;28;20218;-85
2021/06/10 09:37:31;;;;;;;8.02;6.32;;;32.60;95.10;;;;;;5031759;28;20214;-86
2021/06/10 09:39:58;;;;;;;3.65;3.35;;;32.50;93.90;;;;;;5029322;28;20228;-89
2021/06/10 09:42:29;;;;;;;8.60;5.57;;;32.20;91.90;;;;;;5013612;28;20187;-85
2021/06/10 09:45:00;;;;;;;5.20;4.63;;;31.70;95.20;;;;;;5029397;28;20297;-88
2021/06/10 09:47:37;;;;;;;7.63;5.53;;;32.50;94.00;;;;;;5046334;28;20216;-88
2021/06/10 09:50:26;;;;;;;5.72;4.80;;;32.80;93.30;;;;;;5029365;28;20271;-89
2021/06/10 09:53:04;;;;;;;7.68;5.10;;;32.40;93.90;;;;;;5029943;28;20218;-85
2021/06/10 09:55:58;;;;;;;8.20;6.20;;;32.00;94.70;;;;;;5029805;28;20293;-86
2021/06/10 09:58:27;;;;;;;9.35;6.68;;;32.30;94.50;;;;;;5031427;28;20241;-91
2021/06/10 10:00:56;;;;;;;7.10;4.95;;;32.20;94.70;;;;;;5031581;28;20190;-89
2021/06/10 10:03:25;;;;;;;8.27;5.75;;;31.50;95.50;;;;;;5029605;28;20240;-89
2021/06/10 10:05:52;;;;;;;8.40;5.45;;;30.60;95.40;;;;;;5031257;28;20235;-89
2021/06/10 10:08:18;;;;;;;9.77;6.60;;;30.70;96.80;;;;;;5029758;28;20209;-88
2021/06/10 10:10:44;;;;;;;8.52;6.22;;;31.50;95.30;;;;;;5029003;28;20232;-87
2021/06/10 10:13:14;;;;;;;7.47;5.45;;;31.00;95.10;;;;;;5012969;28;21180;-93
2021/06/10 10:15:41;;;;;;;8.95;5.95;;;30.10;96.20;;;;;;5014430;28;20723;-88
2021/06/10 10:18:07;;;;;;;6.45;4.75;;;30.30;96.70;;;;;;5029869;28;20240;-88
2021/06/10 10:20:33;;;;;;;8.32;4.45;;;30.90;94.20;;;;;;5034150;28;20229;-86
2021/06/10 10:22:59;;;;;;;6.50;4.57;;;30.80;95.80;;;;;;5046956;28;20216;-87
2021/06/10 10:25:25;;;;;;;5.60;4.18;;;30.30;94.60;;;;;;5029223;28;20563;-90
2021/06/10 10:27:51;;;;;;;6.70;5.25;;;30.00;95.90;;;;;;5029551;28;20205;-89
2021/06/10 10:30:20;;;;;;;5.20;4.43;;;30.20;95.60;;;;;;5035077;28;20187;-87
2021/06/10 10:32:47;;;;;;;5.85;4.68;;;31.00;96.20;;;;;;5033387;28;20213;-90
2021/06/10 10:35:26;;;;;;;7.10;4.65;;;31.60;95.60;;;;;;5032596;28;20257;-87
2021/06/10 10:37:54;;;;;;;5.00;4.50;;;32.00;95.60;;;;;;5033759;28;20225;-92
2021/06/10 10:40:27;;;;;;;5.50;4.22;;;31.90;96.20;;;;;;5033252;28;20218;-86
2021/06/10 10:42:54;;;;;;;7.45;4.63;;;31.00;97.00;;;;;;5033158;28;20197;-88
2021/06/10 10:45:27;;;;;;;5.43;4.65;;;31.20;94.20;;;;;;5033158;28;20221;-87
2021/06/10 10:48:02;;;;;;;4.63;3.83;;;31.00;95.40;;;;;;5030662;28;20700;-86
2021/06/10 10:50:39;;;;;;;5.75;4.47;;;31.30;95.10;;;;;;5033419;28;20217;-86
2021/06/10 10:53:26;;;;;;;4.05;3.63;;;31.40;96.20;;;;;;5033430;28;20684;-86
2021/06/10 10:56:09;;;;;;;4.13;3.60;;;31.50;95.80;;;;;;5049787;28;20645;-88
2021/06/10 10:58:37;;;;;;;4.45;3.63;;;31.10;94.70;;;;;;5017738;28;20300;-87
2021/06/10 11:01:04;;;;;;;4.97;3.58;;;30.40;95.10;;;;;;5033402;28;20323;-87
2021/06/10 11:03:34;;;;;;;5.00;3.53;;;30.10;96.90;;;;;;5036317;28;20193;-86
2021/06/10 11:06:20;;;;;;;6.65;3.20;;;30.30;96.60;;;;;;5030580;28;20230;-86
2021/06/10 11:11:58;;;;;;;3.80;2.90;;;30.20;95.20;;;;;;5034440;28;20611;-87
2021/06/10 11:14:44;;;;;;;5.70;4.05;;;30.10;96.00;;;;;;5032832;28;20226;-87
2021/06/10 11:17:36;;;;;;;6.05;3.92;;;29.80;95.60;;;;;;5034196;28;20676;-86
2021/06/10 11:20:15;;;;;;;5.78;3.65;;;29.30;95.00;;;;;;5028689;28;20268;-86
2021/06/10 11:22:41;;;;;;;5.80;3.75;;;29.50;96.50;;;;;;5028492;28;20681;-86
2021/06/10 11:25:25;;;;;;;5.03;3.60;;;29.70;96.40;;;;;;5031495;28;20241;-85
2021/06/10 11:27:53;;;;;;;7.18;5.25;;;29.50;96.30;;;;;;5048472;28;20201;-87
2021/06/10 11:30:23;;;;;;;7.72;5.80;;;30.00;97.00;;;;;;5015594;28;20190;-85
2021/06/10 11:32:56;;;;;;;6.47;5.30;;;30.20;96.50;;;;;;5031399;28;20602;-85
2021/06/10 11:35:40;;;;;;;8.20;4.18;;;29.40;96.80;;;;;;5030310;28;20359;-85
2021/06/10 11:38:43;;;;;;;7.57;5.13;;;29.10;96.90;;;;;;5032746;28;20305;-87
2021/06/10 11:41:14;;;;;;;7.32;4.60;;;28.60;98.30;;;;;;5021378;28;20292;-88
2021/06/10 11:43:43;;;;;;;4.10;3.60;;;28.60;97.60;;;;;;5032398;28;20681;-86
2021/06/10 11:46:12;;;;;;;6.47;4.70;;;28.40;97.40;;;;;;5032109;28;20647;-87
2021/06/10 11:48:50;;;;;;;4.97;3.33;;;28.30;97.00;;;;;;5032939;28;20654;-85
2021/06/10 11:51:23;;;;;;;5.70;2.83;;;28.10;98.40;;;;;;5031226;28;20226;-86
2021/06/10 11:53:50;;;;;;;4.28;2.97;;;28.30;96.50;;;;;;5029741;28;20218;-86
2021/06/10 11:56:24;;;;;;;6.43;2.83;;;27.70;97.80;;;;;;5014962;28;20228;-85
2021/06/10 11:58:50;;;;;;;4.35;3.00;;;28.10;98.40;;;;;;5029140;28;20220;-85
2021/06/10 12:01:17;;;;;;;3.95;3.08;;;28.20;98.10;;;;;;5031178;28;20234;-85
2021/06/10 12:03:45;;;;;;;3.38;2.53;;;27.90;98.30;;;;;;5033151;28;20203;-84
2021/06/10 12:06:13;;;;;;;5.03;2.90;;;28.00;98.80;;;;;;4998259;28;20257;-86
2021/06/10 12:08:42;;;;;;;3.22;2.67;;;28.20;98.10;;;;;;5029951;28;20344;-84
2021/06/10 12:11:11;;;;;;;3.75;3.28;;;27.80;97.40;;;;;;5031638;28;20713;-86
2021/06/10 12:13:41;;;;;;;4.97;2.58;;;27.60;99.30;;;;;;5028954;28;20722;-89
2021/06/10 12:16:12;;;;;;;5.35;2.90;;;27.70;97.10;;;;;;5047705;28;20561;-86
2021/06/10 12:18:42;;;;;;;11.10;3.03;;;27.50;97.80;;;;;;5033267;28;20230;-88
2021/06/10 12:21:09;;;;;;;3.30;3.00;;;28.00;98.40;;;;;;5029955;28;20260;-87
2021/06/10 12:23:40;;;;;;;4.07;2.63;;;28.50;96.40;;;;;;5030797;28;20213;-89
2021/06/10 12:26:07;;;;;;;5.00;2.53;;;28.30;96.70;;;;;;5031334;28;20303;-90
2021/06/10 12:28:45;;;;;;;5.38;2.80;;;28.50;97.70;;;;;;5030876;28;20210;-88
2021/06/10 12:31:12;;;;;;;4.63;2.40;;;28.80;96.80;;;;;;5015311;28;20268;-87
2021/06/10 12:33:39;;;;;;;4.65;2.85;;;28.40;98.20;;;;;;5034611;28;20549;-87
2021/06/10 12:36:12;;;;;;;3.42;3.13;;;28.40;97.90;;;;;;5030898;28;20305;-87
2021/06/10 12:38:38;;;;;;;2.80;2.25;;;28.20;97.30;;;;;;5015732;28;20206;-88
2021/06/10 12:41:13;;;;;;;3.58;2.47;;;28.60;98.80;;;;;;5013722;28;20259;-85
2021/06/10 12:43:38;;;;;;;5.95;2.90;;;27.90;98.70;;;;;;5029177;28;20351;-87
2021/06/10 12:46:05;;;;;;;3.30;2.20;;;27.90;99.10;;;;;;5028451;28;20765;-87
2021/06/10 12:48:35;;;;;;;3.30;2.83;;;28.20;99.90;;;;;;5033134;28;20210;-88